Time;durP1;ratioP1;P1;durP2;ratioP2;P2;SDS_P1;SDS_P2;PMS_P1;PMS_P2;Temp;Humidity;BMP_temperature;BMP_pressure;BME280_temperature;BME280_humidity;BME280_pressure;Samples;Min_cycle;Max_cycle;Signal;HPM_P1;HPM_P2
2023/01/21 00:00:56;;;;;;;36.65;27.75;;;2.00;99.90;;;;;;5025877;28;20441;-72
2023/01/21 00:03:23;;;;;;;39.13;28.00;;;0.00;99.90;;;;;;5026534;28;20543;-71
2023/01/21 00:05:48;;;;;;;35.78;27.08;;;0.00;99.90;;;;;;5025381;28;20529;-72
2023/01/21 00:08:14;;;;;;;38.53;27.80;;;-0.10;99.90;;;;;;5040016;28;20469;-71
2023/01/21 00:10:39;;;;;;;36.43;25.77;;;0.90;99.90;;;;;;5024765;28;20744;-73
2023/01/21 00:13:05;;;;;;;37.85;28.27;;;-0.40;99.90;;;;;;5022107;28;20504;-72
2023/01/21 00:15:31;;;;;;;43.10;29.15;;;-0.40;99.90;;;;;;5024939;28;20821;-71
2023/01/21 00:17:56;;;;;;;39.83;29.25;;;-0.40;99.90;;;;;;5024100;28;20434;-73
2023/01/21 00:20:22;;;;;;;38.03;29.33;;;-0.40;99.90;;;;;;5026866;28;20431;-73
2023/01/21 00:22:48;;;;;;;39.57;28.83;;;-0.70;99.90;;;;;;5025464;28;20450;-73
2023/01/21 00:25:13;;;;;;;41.20;29.73;;;-0.80;99.90;;;;;;5019545;28;20449;-72
2023/01/21 00:27:39;;;;;;;38.70;29.60;;;-0.50;99.90;;;;;;5019311;28;20510;-74
2023/01/21 00:30:06;;;;;;;38.40;28.75;;;-0.20;99.90;;;;;;5024551;28;20526;-73
2023/01/21 00:32:31;;;;;;;40.72;28.80;;;-0.40;99.90;;;;;;5025451;28;20458;-73
2023/01/21 00:34:57;;;;;;;38.65;27.48;;;-0.80;99.90;;;;;;5026546;28;20430;-72
2023/01/21 00:37:23;;;;;;;43.13;29.15;;;-0.70;99.90;;;;;;5017012;28;20423;-73
2023/01/21 00:39:49;;;;;;;42.33;29.08;;;-0.40;99.90;;;;;;5023198;28;20426;-72
2023/01/21 00:42:15;;;;;;;40.40;29.55;;;-0.40;99.90;;;;;;5022166;28;20434;-74
2023/01/21 00:44:40;;;;;;;41.47;29.20;;;-0.80;99.90;;;;;;5034218;28;20541;-72
2023/01/21 00:47:06;;;;;;;41.23;29.90;;;-1.00;99.90;;;;;;5023260;28;20759;-73
2023/01/21 00:49:32;;;;;;;40.63;29.07;;;-1.00;99.90;;;;;;5025571;28;20466;-73
2023/01/21 00:51:58;;;;;;;40.53;30.55;;;-0.70;99.90;;;;;;5024480;28;20423;-73
2023/01/21 00:54:24;;;;;;;43.53;30.40;;;-0.50;99.90;;;;;;5024848;28;20426;-71
2023/01/21 00:56:49;;;;;;;43.83;31.25;;;-0.50;99.90;;;;;;5040295;28;20423;-73
2023/01/21 00:59:15;;;;;;;44.50;30.75;;;-0.70;99.90;;;;;;5025124;28;20435;-72
2023/01/21 01:01:41;;;;;;;46.72;30.80;;;-0.60;99.90;;;;;;5023850;28;20440;-73
2023/01/21 01:04:07;;;;;;;45.07;31.80;;;-0.90;99.90;;;;;;5024096;28;20437;-74
2023/01/21 01:06:33;;;;;;;42.83;30.92;;;0.20;99.90;;;;;;5027332;28;20418;-73
2023/01/21 01:08:59;;;;;;;45.38;30.85;;;-0.50;99.90;;;;;;5022777;28;20451;-72
2023/01/21 01:11:26;;;;;;;43.30;31.03;;;-1.00;99.90;;;;;;5020589;28;20431;-72
2023/01/21 01:13:53;;;;;;;48.92;32.90;;;-0.60;99.90;;;;;;5035850;28;20483;-72
2023/01/21 01:16:18;;;;;;;47.47;32.45;;;-0.60;99.90;;;;;;5020223;28;20431;-74
2023/01/21 01:18:44;;;;;;;46.03;32.03;;;-0.80;99.90;;;;;;5038816;28;20438;-72
2023/01/21 01:21:16;;;;;;;43.70;31.77;;;-0.50;99.90;;;;;;5023615;28;20431;-72
2023/01/21 01:23:42;;;;;;;49.95;36.35;;;-0.80;99.90;;;;;;5023114;28;20783;-73
2023/01/21 01:26:13;;;;;;;51.65;35.72;;;-1.20;99.90;;;;;;5039441;28;20426;-71
2023/01/21 01:28:39;;;;;;;52.83;37.37;;;-0.70;99.90;;;;;;5022926;28;20565;-71
2023/01/21 01:31:07;;;;;;;53.45;36.88;;;-1.10;99.90;;;;;;5021614;28;20498;-73
2023/01/21 01:33:33;;;;;;;52.50;37.30;;;-0.80;99.90;;;;;;5022530;28;20836;-73
2023/01/21 01:36:04;;;;;;;51.00;35.27;;;-0.60;99.90;;;;;;5023613;28;20581;-73
2023/01/21 01:38:30;;;;;;;51.40;36.50;;;-1.10;99.90;;;;;;5039611;28;20433;-73
2023/01/21 01:40:55;;;;;;;51.38;35.70;;;-1.30;99.90;;;;;;5021687;28;20438;-73
2023/01/21 01:43:25;;;;;;;45.27;32.97;;;-0.90;99.90;;;;;;5021484;28;20438;-73
2023/01/21 01:45:51;;;;;;;49.70;33.33;;;-1.30;99.90;;;;;;5002967;28;20470;-73
2023/01/21 01:48:24;;;;;;;49.08;33.92;;;-1.00;99.90;;;;;;5023889;28;20793;-73
2023/01/21 01:50:50;;;;;;;51.72;36.10;;;-1.20;99.90;;;;;;5023352;28;20510;-74
2023/01/21 01:53:17;;;;;;;48.17;32.85;;;-0.80;99.90;;;;;;5020044;28;21008;-72
2023/01/21 01:55:44;;;;;;;46.25;32.28;;;-0.90;99.90;;;;;;5036113;28;20422;-72
2023/01/21 01:58:13;;;;;;;47.35;31.73;;;-1.30;99.90;;;;;;5013400;28;20575;-73
2023/01/21 02:00:39;;;;;;;45.20;31.52;;;-1.30;99.90;;;;;;5021842;28;20777;-72
2023/01/21 02:05:51;;;;;;;43.58;30.10;;;-0.90;99.90;;;;;;5019447;28;20485;-73
2023/01/21 02:08:17;;;;;;;46.10;30.00;;;-1.00;99.90;;;;;;5023185;28;20841;-73
2023/01/21 02:10:43;;;;;;;44.13;31.20;;;-1.30;99.90;;;;;;5021423;28;20443;-74
2023/01/21 02:13:10;;;;;;;47.28;32.03;;;-0.90;99.90;;;;;;5016366;28;20461;-73
2023/01/21 02:16:04;;;;;;;51.40;31.50;;;-1.00;99.90;;;;;;5026491;28;20513;-72
2023/01/21 02:18:40;;;;;;;46.10;32.28;;;-0.90;99.90;;;;;;5022919;28;25154;-72
2023/01/21 02:21:31;;;;;;;42.60;29.45;;;-1.40;99.90;;;;;;5026323;28;20466;-72
2023/01/21 02:24:17;;;;;;;47.83;30.27;;;-1.10;99.90;;;;;;5019254;28;20455;-73
2023/01/21 02:26:49;;;;;;;45.67;30.93;;;-1.50;99.90;;;;;;5021319;28;20476;-71
2023/01/21 02:29:32;;;;;;;47.78;32.08;;;-1.20;99.90;;;;;;5026926;28;20438;-74
2023/01/21 02:32:03;;;;;;;43.63;30.65;;;-1.50;99.90;;;;;;5026201;28;20484;-72
2023/01/21 02:34:50;;;;;;;45.40;32.08;;;-1.10;99.90;;;;;;5008340;28;20434;-73
2023/01/21 02:37:37;;;;;;;51.17;32.72;;;-1.00;99.90;;;;;;5021024;28;20571;-74
2023/01/21 02:40:55;;;;;;;47.80;31.25;;;-2.70;99.90;;;;;;5025624;28;25102;-72
2023/01/21 02:43:31;;;;;;;48.15;31.10;;;-1.10;99.90;;;;;;4970546;28;25130;-72
2023/01/21 02:46:27;;;;;;;45.00;31.13;;;-0.90;99.90;;;;;;5024164;28;20432;-72
2023/01/21 02:49:02;;;;;;;49.17;31.38;;;-1.10;99.90;;;;;;5027111;28;20455;-74
2023/01/21 02:51:27;;;;;;;44.80;30.75;;;-1.30;99.90;;;;;;5026441;28;20450;-72
2023/01/21 02:53:53;;;;;;;44.57;28.80;;;-0.80;99.90;;;;;;5025546;28;20510;-72
2023/01/21 02:56:22;;;;;;;46.97;29.57;;;-1.30;99.90;;;;;;5028875;28;20431;-75
2023/01/21 02:58:52;;;;;;;43.38;30.73;;;-0.90;99.90;;;;;;5028211;28;20432;-75
2023/01/21 03:01:24;;;;;;;46.65;31.50;;;-0.90;99.90;;;;;;5026363;28;20434;-73
2023/01/21 03:04:05;;;;;;;44.80;30.40;;;-1.20;99.90;;;;;;5028323;28;20518;-73
2023/01/21 03:06:38;;;;;;;47.33;31.10;;;-1.40;99.90;;;;;;5027864;28;20426;-72
2023/01/21 03:09:24;;;;;;;46.35;31.88;;;-1.40;99.90;;;;;;5024619;28;22152;-74
2023/01/21 03:11:58;;;;;;;49.00;31.80;;;-1.00;99.90;;;;;;5025631;28;20434;-73
2023/01/21 03:17:40;;;;;;;46.30;31.23;;;-1.30;99.90;;;;;;5024032;28;20962;-71
2023/01/21 03:20:18;;;;;;;45.65;32.45;;;-0.90;99.90;;;;;;5025689;28;20408;-72
2023/01/21 03:22:45;;;;;;;46.72;30.42;;;-0.80;99.90;;;;;;5007418;28;20455;-72
2023/01/21 03:25:12;;;;;;;47.85;31.20;;;-1.10;99.90;;;;;;5023437;28;20962;-74
2023/01/21 03:27:41;;;;;;;50.63;32.80;;;-1.40;99.90;;;;;;5020877;28;20923;-70
2023/01/21 03:30:17;;;;;;;47.53;32.45;;;-0.90;99.90;;;;;;5027310;28;20874;-72
2023/01/21 03:32:45;;;;;;;49.17;33.95;;;-1.10;99.90;;;;;;5019274;28;20451;-72
2023/01/21 03:35:16;;;;;;;51.13;31.85;;;-1.40;99.90;;;;;;5027431;28;20426;-74
2023/01/21 03:37:51;;;;;;;49.67;31.00;;;-1.00;99.90;;;;;;5038774;28;20434;-73
2023/01/21 03:40:25;;;;;;;46.17;32.30;;;-1.50;99.90;;;;;;5016452;28;20430;-73
2023/01/21 03:42:54;;;;;;;46.80;32.47;;;-1.00;99.90;;;;;;5026496;28;20499;-72
2023/01/21 03:45:48;;;;;;;46.38;31.27;;;-1.20;99.90;;;;;;5026199;28;20450;-72
2023/01/21 03:48:39;;;;;;;45.83;31.25;;;-1.00;99.90;;;;;;5026155;28;20416;-73
2023/01/21 03:51:10;;;;;;;46.03;31.25;;;-0.80;99.90;;;;;;5024853;28;20424;-72
2023/01/21 03:53:36;;;;;;;47.70;33.22;;;-1.10;99.90;;;;;;5026698;28;20415;-72
2023/01/21 03:56:01;;;;;;;47.08;30.27;;;-0.10;99.90;;;;;;5024154;28;20431;-73
2023/01/21 03:58:27;;;;;;;47.70;31.77;;;-1.20;99.90;;;;;;5026934;28;20411;-73
2023/01/21 04:00:53;;;;;;;47.25;32.65;;;-1.40;99.90;;;;;;5025440;28;20439;-73
2023/01/21 04:03:19;;;;;;;46.28;31.70;;;-1.40;99.90;;;;;;5027810;28;20423;-72
2023/01/21 04:05:44;;;;;;;49.57;32.27;;;-1.20;99.90;;;;;;5026448;28;20431;-75
2023/01/21 04:08:10;;;;;;;46.03;31.50;;;-1.30;99.90;;;;;;5028264;28;20484;-73
2023/01/21 04:10:36;;;;;;;48.20;30.70;;;-0.90;99.90;;;;;;5026653;28;20430;-72
2023/01/21 04:13:01;;;;;;;49.63;33.07;;;-0.80;99.90;;;;;;5018574;28;20435;-75
2023/01/21 04:15:27;;;;;;;48.28;31.20;;;-1.10;99.90;;;;;;5021381;28;20423;-72
2023/01/21 04:17:53;;;;;;;61.92;33.65;;;-0.80;99.90;;;;;;5024240;28;20916;-72
2023/01/21 04:20:18;;;;;;;49.65;33.13;;;-1.00;99.90;;;;;;5027614;28;20980;-72
2023/01/21 04:22:44;;;;;;;49.35;33.00;;;-1.00;99.90;;;;;;5023113;28;20431;-74
2023/01/21 04:25:10;;;;;;;50.78;33.22;;;-0.60;99.90;;;;;;5025058;28;20801;-73
2023/01/21 04:27:35;;;;;;;49.17;33.50;;;-1.20;99.90;;;;;;5022536;28;20491;-74
2023/01/21 04:30:01;;;;;;;45.13;31.07;;;-0.60;99.90;;;;;;5025784;28;20454;-72
2023/01/21 04:32:27;;;;;;;46.73;31.33;;;-0.70;99.90;;;;;;5025915;28;20767;-74
2023/01/21 04:34:53;;;;;;;48.75;32.08;;;-0.60;99.90;;;;;;5024598;28;20457;-73
2023/01/21 04:37:18;;;;;;;47.67;32.97;;;-0.90;99.90;;;;;;5019927;28;20510;-73
2023/01/21 04:39:44;;;;;;;52.13;34.67;;;-0.60;99.90;;;;;;5023903;28;20427;-73
2023/01/21 04:42:09;;;;;;;45.10;31.47;;;-1.00;99.90;;;;;;5022849;28;20517;-73
2023/01/21 04:44:35;;;;;;;52.47;32.97;;;0.10;99.90;;;;;;5041093;28;20431;-73
2023/01/21 04:47:01;;;;;;;48.87;33.20;;;-0.50;99.90;;;;;;5023766;28;20419;-72
2023/01/21 04:49:26;;;;;;;49.90;34.53;;;-0.90;99.90;;;;;;5024222;28;20449;-71
2023/01/21 04:51:52;;;;;;;50.07;33.17;;;-0.70;99.90;;;;;;5022206;28;20427;-73
2023/01/21 04:54:18;;;;;;;48.15;33.22;;;-0.60;99.90;;;;;;5025291;28;20434;-73
2023/01/21 04:56:43;;;;;;;50.53;32.85;;;-0.60;99.90;;;;;;5024271;28;20419;-73
2023/01/21 04:59:10;;;;;;;49.30;32.88;;;-1.00;99.90;;;;;;5024351;28;20801;-72
2023/01/21 05:01:35;;;;;;;48.53;34.83;;;-1.00;99.90;;;;;;5022780;28;20503;-75
2023/01/21 05:04:01;;;;;;;52.08;33.78;;;-0.50;99.90;;;;;;5025124;28;20526;-72
2023/01/21 05:06:27;;;;;;;45.75;31.55;;;-0.90;99.90;;;;;;5024849;28;20450;-73
2023/01/21 05:08:52;;;;;;;49.57;34.00;;;-1.00;99.90;;;;;;5022185;28;20914;-72
2023/01/21 05:11:19;;;;;;;64.43;34.60;;;-0.60;99.90;;;;;;5022672;28;20855;-72
2023/01/21 05:13:45;;;;;;;50.00;34.50;;;-1.10;99.90;;;;;;5033534;28;20514;-75
2023/01/21 05:16:13;;;;;;;53.78;34.97;;;-1.10;99.90;;;;;;5023849;28;20431;-73
2023/01/21 05:18:39;;;;;;;47.67;32.65;;;-1.00;99.90;;;;;;5023199;28;20820;-74
2023/01/21 05:21:05;;;;;;;53.50;33.88;;;-1.00;99.90;;;;;;5021057;28;20487;-72
2023/01/21 05:23:32;;;;;;;53.00;34.28;;;-0.80;99.90;;;;;;5023077;28;20504;-73
2023/01/21 05:25:57;;;;;;;52.20;35.22;;;-1.20;99.90;;;;;;5024911;28;20498;-72
2023/01/21 05:28:23;;;;;;;55.05;36.28;;;-1.20;99.90;;;;;;5022284;28;20480;-73
2023/01/21 05:30:49;;;;;;;56.42;34.38;;;-0.90;99.90;;;;;;5020433;28;20438;-72
2023/01/21 05:33:14;;;;;;;52.20;34.00;;;-1.40;99.90;;;;;;5039557;28;20426;-72
2023/01/21 05:35:40;;;;;;;50.60;33.57;;;-1.30;99.90;;;;;;5025042;28;20437;-73
2023/01/21 05:38:06;;;;;;;54.43;34.30;;;-1.10;99.90;;;;;;5017579;28;20422;-72
2023/01/21 05:40:31;;;;;;;56.07;34.17;;;-1.60;99.90;;;;;;5024257;28;20755;-71
2023/01/21 05:42:57;;;;;;;46.17;32.43;;;-1.60;99.90;;;;;;5023856;28;20437;-74
2023/01/21 05:45:23;;;;;;;52.65;33.53;;;-1.00;99.90;;;;;;5025293;28;20451;-72
2023/01/21 05:47:48;;;;;;;52.53;33.90;;;-1.30;99.90;;;;;;5021724;28;20490;-72
2023/01/21 05:50:14;;;;;;;47.90;32.80;;;-1.60;99.90;;;;;;5025082;28;20442;-72
2023/01/21 05:52:40;;;;;;;52.20;34.17;;;-1.30;99.90;;;;;;5022999;28;20833;-71
2023/01/21 05:55:07;;;;;;;52.67;33.25;;;-1.00;99.90;;;;;;5025185;28;20998;-73
2023/01/21 05:57:33;;;;;;;48.03;31.85;;;-1.30;99.90;;;;;;5024067;28;20434;-72
2023/01/21 05:59:59;;;;;;;48.92;31.83;;;-0.80;99.90;;;;;;5026126;28;20518;-71
2023/01/21 06:02:25;;;;;;;48.72;33.55;;;-0.70;99.90;;;;;;5017077;28;20506;-73
2023/01/21 06:04:50;;;;;;;48.88;32.75;;;-1.00;99.90;;;;;;5022375;28;20789;-72
2023/01/21 06:07:16;;;;;;;44.63;31.53;;;-1.00;99.90;;;;;;5023381;28;20859;-72
2023/01/21 06:09:42;;;;;;;48.20;34.20;;;-1.10;99.90;;;;;;5023866;28;20901;-73
2023/01/21 06:12:07;;;;;;;50.05;32.90;;;-0.70;99.90;;;;;;5025286;28;20916;-72
2023/01/21 06:14:33;;;;;;;56.45;36.25;;;-0.60;99.90;;;;;;5025178;28;20431;-73
2023/01/21 06:16:58;;;;;;;49.57;33.10;;;-0.70;99.90;;;;;;5023490;28;20419;-71
2023/01/21 06:19:24;;;;;;;49.77;33.83;;;-0.70;99.90;;;;;;5021855;28;20433;-75
2023/01/21 06:21:51;;;;;;;53.20;35.80;;;-1.10;99.90;;;;;;5017038;28;20419;-71
2023/01/21 06:24:17;;;;;;;45.63;32.45;;;-0.70;99.90;;;;;;5019665;28;20794;-71
2023/01/21 06:26:42;;;;;;;52.70;35.20;;;-0.80;99.90;;;;;;5015953;28;20431;-73
2023/01/21 06:29:08;;;;;;;48.88;33.25;;;-1.10;99.90;;;;;;5018138;28;20477;-73
2023/01/21 06:31:33;;;;;;;50.10;33.38;;;-1.30;99.90;;;;;;5022700;28;20557;-76
2023/01/21 06:33:59;;;;;;;53.53;34.65;;;-0.80;99.90;;;;;;5022305;28;20778;-74
2023/01/21 06:36:25;;;;;;;53.83;33.83;;;-0.90;99.90;;;;;;5025031;28;20527;-72
2023/01/21 06:38:50;;;;;;;52.77;34.87;;;-0.50;99.90;;;;;;5026355;28;20462;-73
2023/01/21 06:41:16;;;;;;;52.90;34.23;;;-0.40;99.90;;;;;;5024849;28;20469;-72
2023/01/21 06:43:41;;;;;;;54.37;35.07;;;-1.20;99.90;;;;;;5020610;28;20455;-72
2023/01/21 06:46:07;;;;;;;60.20;37.00;;;-0.80;99.90;;;;;;5007335;28;20858;-71
2023/01/21 06:48:33;;;;;;;56.25;34.33;;;-1.50;99.90;;;;;;5023027;28;20415;-72
2023/01/21 06:50:59;;;;;;;54.45;34.95;;;-1.00;99.90;;;;;;5024321;28;20435;-72
2023/01/21 06:53:25;;;;;;;51.05;34.15;;;-1.00;99.90;;;;;;5024290;28;20422;-73
2023/01/21 06:55:51;;;;;;;52.97;34.92;;;-1.10;99.90;;;;;;5024904;28;20435;-73
2023/01/21 06:58:17;;;;;;;55.30;35.50;;;-1.00;99.90;;;;;;5025396;28;20521;-72
2023/01/21 07:00:42;;;;;;;54.17;35.93;;;-1.00;99.90;;;;;;5026050;28;20444;-72
2023/01/21 07:03:08;;;;;;;55.70;35.58;;;-1.40;99.90;;;;;;5023531;28;20789;-73
2023/01/21 07:05:33;;;;;;;56.63;35.83;;;-1.40;99.90;;;;;;5026193;28;20453;-77
2023/01/21 07:07:59;;;;;;;46.88;32.78;;;-1.20;99.90;;;;;;5026898;28;20427;-74
2023/01/21 07:10:25;;;;;;;51.87;32.83;;;-1.30;99.90;;;;;;5028241;28;20480;-72
2023/01/21 07:12:51;;;;;;;73.17;36.27;;;-1.60;99.90;;;;;;5025960;28;20936;-74
2023/01/21 07:15:16;;;;;;;60.40;36.10;;;-1.30;99.90;;;;;;5042900;28;20439;-74
2023/01/21 07:17:42;;;;;;;53.47;34.75;;;-1.80;99.90;;;;;;5026977;28;20789;-74
2023/01/21 07:20:11;;;;;;;52.40;32.92;;;-1.20;99.90;;;;;;5029085;28;20430;-74
2023/01/21 07:22:37;;;;;;;52.35;33.03;;;-1.70;99.90;;;;;;5026130;28;20447;-72
2023/01/21 07:25:03;;;;;;;55.13;35.08;;;-2.00;99.90;;;;;;5021867;28;20431;-72
2023/01/21 07:27:29;;;;;;;54.38;35.88;;;-1.80;99.90;;;;;;5026502;28;20554;-74
2023/01/21 07:29:54;;;;;;;56.25;36.33;;;-1.90;99.90;;;;;;5021652;28;20562;-74
2023/01/21 07:32:20;;;;;;;51.92;35.58;;;-1.50;99.90;;;;;;5020078;28;20418;-71
2023/01/21 07:34:46;;;;;;;58.40;36.53;;;-1.30;99.90;;;;;;5007814;28;20435;-71
2023/01/21 07:37:11;;;;;;;57.20;35.70;;;-1.40;99.90;;;;;;5024068;28;20575;-73
2023/01/21 07:39:37;;;;;;;51.47;35.10;;;-1.30;99.90;;;;;;5021066;28;20438;-73
2023/01/21 07:42:03;;;;;;;54.70;38.10;;;-1.30;99.90;;;;;;5028179;28;20461;-72
2023/01/21 07:44:28;;;;;;;52.88;36.92;;;-1.30;99.90;;;;;;5022078;28;20945;-73
2023/01/21 07:46:54;;;;;;;57.90;35.60;;;-1.80;99.90;;;;;;5016146;28;20415;-73
2023/01/21 07:49:20;;;;;;;49.30;34.20;;;-1.20;99.90;;;;;;5008391;28;20945;-71
2023/01/21 07:51:46;;;;;;;50.50;34.20;;;-1.50;99.90;;;;;;5040364;28;20470;-72
2023/01/21 07:54:13;;;;;;;47.92;32.63;;;-1.40;99.90;;;;;;5033639;28;20460;-73
2023/01/21 07:56:39;;;;;;;54.47;35.08;;;-1.30;99.90;;;;;;5010675;28;20439;-72
2023/01/21 07:59:04;;;;;;;51.63;34.07;;;-1.80;99.90;;;;;;5026171;28;20514;-73
2023/01/21 08:01:31;;;;;;;55.20;35.67;;;-1.80;99.90;;;;;;5012787;28;20432;-72
2023/01/21 08:03:58;;;;;;;53.47;35.90;;;-0.70;99.90;;;;;;5024098;28;20455;-73
2023/01/21 08:06:23;;;;;;;62.50;39.70;;;-1.50;99.90;;;;;;5022516;28;20791;-73
2023/01/21 08:08:49;;;;;;;61.25;41.42;;;-1.30;99.90;;;;;;5020159;28;20466;-73
2023/01/21 08:11:15;;;;;;;66.67;42.93;;;-1.20;99.90;;;;;;5026200;28;20427;-73
2023/01/21 08:13:41;;;;;;;58.65;40.10;;;-1.20;99.90;;;;;;5026237;28;20510;-72
2023/01/21 08:16:10;;;;;;;53.95;38.05;;;-1.60;99.90;;;;;;5040825;28;20464;-73
2023/01/21 08:18:36;;;;;;;55.55;37.45;;;-1.20;99.90;;;;;;5026394;28;20469;-74
2023/01/21 08:21:02;;;;;;;61.42;40.78;;;-1.60;99.90;;;;;;5027281;28;20750;-72
2023/01/21 08:23:27;;;;;;;60.67;40.97;;;-1.10;99.90;;;;;;5025155;28;20430;-73
2023/01/21 08:25:53;;;;;;;65.65;42.60;;;-1.50;99.90;;;;;;5027467;28;20435;-74
2023/01/21 08:28:20;;;;;;;62.75;40.85;;;-1.10;99.90;;;;;;5027347;28;20964;-73
2023/01/21 08:30:45;;;;;;;62.20;42.83;;;-1.40;99.90;;;;;;5020024;28;20888;-73
2023/01/21 08:33:11;;;;;;;63.75;42.22;;;-1.00;99.90;;;;;;5028549;28;20407;-74
2023/01/21 08:35:37;;;;;;;69.70;44.17;;;-1.10;99.90;;;;;;5026508;28;20450;-74
2023/01/21 08:38:02;;;;;;;66.78;42.45;;;-0.90;99.90;;;;;;5018850;28;20426;-72
2023/01/21 08:40:28;;;;;;;61.60;39.67;;;-1.30;99.90;;;;;;5025493;28;20505;-73
2023/01/21 08:43:01;;;;;;;68.05;43.25;;;-1.30;99.90;;;;;;5021884;28;20428;-72
2023/01/21 08:45:27;;;;;;;63.10;42.00;;;-1.10;99.90;;;;;;5025833;28;25145;-73
2023/01/21 08:47:53;;;;;;;60.58;39.35;;;-1.20;99.90;;;;;;5019225;28;20538;-72
2023/01/21 08:50:19;;;;;;;64.33;40.23;;;-0.80;99.90;;;;;;5024103;28;20462;-72
2023/01/21 08:52:52;;;;;;;59.70;39.53;;;-1.20;99.90;;;;;;5026223;28;20420;-73
2023/01/21 08:55:18;;;;;;;60.80;37.80;;;-1.20;99.90;;;;;;5024612;28;20435;-73
2023/01/21 08:57:44;;;;;;;65.35;39.15;;;-1.20;99.90;;;;;;5025253;28;20423;-72
2023/01/21 09:00:10;;;;;;;64.80;41.07;;;-1.20;99.90;;;;;;5023178;28;20504;-72
2023/01/21 09:02:36;;;;;;;62.15;39.88;;;-0.50;99.90;;;;;;5023976;28;20479;-71
2023/01/21 09:05:02;;;;;;;56.03;36.20;;;-1.00;99.90;;;;;;5025453;28;20430;-72
2023/01/21 09:07:27;;;;;;;59.37;39.10;;;-0.80;99.90;;;;;;5025908;28;20419;-73
2023/01/21 09:09:53;;;;;;;55.13;36.90;;;-0.40;99.90;;;;;;5025664;28;20561;-71
2023/01/21 09:12:18;;;;;;;59.35;39.13;;;-0.40;99.90;;;;;;5024856;28;20783;-74
2023/01/21 09:14:44;;;;;;;50.13;36.08;;;-0.40;99.90;;;;;;5024112;28;20481;-72
2023/01/21 09:17:10;;;;;;;56.08;38.30;;;-0.20;99.90;;;;;;5023968;28;20432;-72
2023/01/21 09:19:35;;;;;;;55.65;37.15;;;-0.20;99.90;;;;;;5024448;28;20431;-74
2023/01/21 09:22:01;;;;;;;54.87;38.43;;;-0.20;99.90;;;;;;5025489;28;20878;-71
2023/01/21 09:24:27;;;;;;;57.03;38.87;;;-0.10;99.90;;;;;;5023013;28;20446;-73
2023/01/21 09:26:54;;;;;;;54.70;36.87;;;-0.10;99.90;;;;;;5025208;28;20473;-70
2023/01/21 09:29:19;;;;;;;51.55;37.03;;;0.10;99.90;;;;;;5025277;28;20509;-72
2023/01/21 09:31:45;;;;;;;63.00;42.45;;;-0.20;99.90;;;;;;5022377;28;20530;-71
2023/01/21 09:34:11;;;;;;;60.95;42.65;;;0.10;99.90;;;;;;5023739;28;21222;-72
2023/01/21 09:36:37;;;;;;;62.70;42.47;;;0.20;99.90;;;;;;5000918;28;20433;-72
2023/01/21 09:39:04;;;;;;;59.30;41.23;;;0.10;99.90;;;;;;5020251;28;20426;-75
2023/01/21 09:41:47;;;;;;;52.17;37.03;;;0.10;99.90;;;;;;5008864;28;20420;-72
2023/01/21 09:44:43;;;;;;;61.40;39.07;;;0.20;99.90;;;;;;5014282;28;29105;-71
2023/01/21 09:47:25;;;;;;;57.42;39.67;;;-0.10;99.90;;;;;;5024865;28;20416;-71
2023/01/21 09:49:54;;;;;;;53.38;38.17;;;0.20;99.90;;;;;;5023601;28;20988;-72
2023/01/21 09:52:45;;;;;;;51.72;36.03;;;0.30;99.90;;;;;;5026562;28;20964;-71
2023/01/21 09:55:30;;;;;;;55.10;37.97;;;0.20;99.90;;;;;;5025498;28;20427;-72
2023/01/21 09:58:36;;;;;;;58.42;40.17;;;0.20;99.90;;;;;;5022223;28;20440;-73
2023/01/21 10:01:31;;;;;;;59.40;41.28;;;0.30;99.90;;;;;;5023506;28;20419;-72
2023/01/21 10:04:58;;;;;;;52.30;38.28;;;0.70;99.90;;;;;;5007819;28;20439;-73
2023/01/21 10:07:36;;;;;;;56.65;40.78;;;0.40;99.90;;;;;;4960178;28;25109;-71
2023/01/21 10:10:16;;;;;;;55.72;39.33;;;0.90;99.90;;;;;;4966084;28;25164;-73
2023/01/21 10:13:17;;;;;;;51.08;38.42;;;1.30;99.90;;;;;;5009513;28;25107;-72
2023/01/21 10:16:06;;;;;;;53.58;38.58;;;0.80;99.90;;;;;;5006234;28;25112;-72
2023/01/21 10:18:35;;;;;;;51.90;37.03;;;1.20;99.90;;;;;;5013340;28;20453;-72
2023/01/21 10:21:19;;;;;;;49.75;36.33;;;1.00;99.90;;;;;;5037085;28;20812;-72
2023/01/21 10:23:50;;;;;;;55.03;36.77;;;1.40;99.90;;;;;;5011697;28;25111;-72
2023/01/21 10:26:16;;;;;;;54.42;37.28;;;1.50;99.90;;;;;;5020387;28;21290;-72
2023/01/21 10:28:50;;;;;;;47.55;33.78;;;1.20;99.90;;;;;;5022766;28;20423;-73
2023/01/21 10:31:25;;;;;;;47.47;34.70;;;1.60;99.90;;;;;;5020640;28;20852;-72
2023/01/21 10:33:52;;;;;;;50.20;34.65;;;1.20;99.90;;;;;;5016868;28;20491;-72
2023/01/21 10:36:23;;;;;;;46.50;35.23;;;1.30;99.90;;;;;;5023474;28;20434;-73
2023/01/21 10:39:12;;;;;;;44.90;32.75;;;1.70;99.90;;;;;;5028048;28;20994;-74
2023/01/21 10:41:50;;;;;;;47.83;33.60;;;1.50;99.90;;;;;;5042989;28;25170;-73
2023/01/21 10:44:22;;;;;;;45.20;33.90;;;1.90;99.90;;;;;;5028456;28;20438;-73
2023/01/21 10:46:50;;;;;;;40.47;31.30;;;1.90;99.90;;;;;;5024452;28;20485;-73
2023/01/21 10:49:24;;;;;;;42.60;32.43;;;1.60;99.90;;;;;;5028593;28;20494;-73
2023/01/21 10:52:16;;;;;;;44.58;31.63;;;1.70;99.90;;;;;;5027870;28;20480;-74
2023/01/21 10:55:06;;;;;;;41.33;32.45;;;2.60;99.90;;;;;;5025831;28;20448;-72
2023/01/21 10:57:46;;;;;;;48.08;31.73;;;2.10;99.90;;;;;;5025533;28;20443;-74
2023/01/21 11:00:46;;;;;;;45.10;31.67;;;1.90;99.90;;;;;;5029332;28;20435;-73
2023/01/21 11:03:20;;;;;;;42.35;31.17;;;1.80;99.90;;;;;;5015158;28;25121;-73
2023/01/21 11:05:46;;;;;;;39.13;29.30;;;2.30;99.90;;;;;;5024994;28;20462;-73
2023/01/21 11:08:19;;;;;;;40.33;30.63;;;2.00;99.90;;;;;;5029315;28;20428;-72
2023/01/21 11:10:46;;;;;;;41.22;31.25;;;2.40;99.90;;;;;;5027171;28;20499;-73
2023/01/21 11:13:13;;;;;;;39.63;29.48;;;2.80;99.90;;;;;;5027019;28;20479;-74
2023/01/21 11:15:45;;;;;;;39.30;28.55;;;2.50;99.90;;;;;;5025070;28;20431;-73
2023/01/21 11:18:35;;;;;;;38.20;27.25;;;2.40;99.90;;;;;;5025459;28;20518;-74
2023/01/21 11:21:17;;;;;;;34.60;25.50;;;2.60;99.90;;;;;;5028422;28;20539;-72
2023/01/21 11:23:54;;;;;;;35.13;25.02;;;2.30;99.90;;;;;;5025542;28;20438;-72
2023/01/21 11:26:27;;;;;;;34.13;26.30;;;2.60;99.90;;;;;;5025871;28;20429;-73
2023/01/21 11:29:12;;;;;;;31.90;24.20;;;2.60;99.90;;;;;;5029041;28;20769;-73
2023/01/21 11:31:40;;;;;;;30.00;23.65;;;2.70;99.90;;;;;;5021722;28;20442;-73
2023/01/21 11:34:15;;;;;;;32.22;24.63;;;2.60;99.90;;;;;;5027880;28;21017;-74
2023/01/21 11:36:57;;;;;;;35.77;25.90;;;2.40;99.90;;;;;;5042193;28;20476;-74
2023/01/21 11:39:28;;;;;;;31.38;22.83;;;2.60;99.90;;;;;;5015444;28;20495;-73
2023/01/21 11:42:13;;;;;;;27.60;21.00;;;2.70;99.90;;;;;;5016621;28;20446;-73
2023/01/21 11:45:05;;;;;;;27.25;20.20;;;3.10;99.90;;;;;;5021475;28;20411;-74
2023/01/21 11:47:46;;;;;;;24.55;19.70;;;2.70;99.90;;;;;;5023361;28;20463;-72
2023/01/21 11:50:17;;;;;;;26.92;20.35;;;2.60;99.90;;;;;;5028816;28;20439;-74
2023/01/21 11:52:43;;;;;;;26.65;21.20;;;2.60;99.90;;;;;;5023683;28;20494;-73
2023/01/21 11:55:39;;;;;;;27.80;21.77;;;2.80;99.90;;;;;;5026832;28;20572;-73
2023/01/21 11:58:16;;;;;;;28.02;21.90;;;2.90;99.90;;;;;;5016305;28;20439;-73
2023/01/21 12:00:44;;;;;;;29.17;23.73;;;2.70;99.90;;;;;;5026797;28;20876;-75
2023/01/21 12:03:15;;;;;;;26.95;21.50;;;2.90;99.90;;;;;;5026090;28;20485;-75
2023/01/21 12:05:46;;;;;;;27.50;20.52;;;2.80;99.90;;;;;;5026149;28;20429;-74
2023/01/21 12:08:28;;;;;;;26.90;21.07;;;3.00;99.90;;;;;;5025690;28;20589;-74
2023/01/21 12:10:58;;;;;;;24.50;19.17;;;2.90;99.90;;;;;;5022868;28;20435;-74
2023/01/21 12:14:05;;;;;;;25.20;19.75;;;3.20;99.90;;;;;;5026118;28;20439;-74
2023/01/21 12:16:36;;;;;;;26.93;19.87;;;3.00;99.90;;;;;;4967905;28;20605;-73
2023/01/21 12:19:26;;;;;;;23.67;19.33;;;2.90;99.90;;;;;;5015586;28;20937;-74
2023/01/21 12:22:25;;;;;;;26.77;18.85;;;3.00;99.90;;;;;;5011719;28;20494;-74
2023/01/21 12:25:23;;;;;;;25.58;19.23;;;3.00;99.90;;;;;;5026295;28;20427;-75
2023/01/21 12:28:06;;;;;;;21.65;17.05;;;3.00;99.90;;;;;;5020980;28;20463;-73
2023/01/21 12:30:47;;;;;;;24.08;18.33;;;3.80;99.90;;;;;;5025645;28;20481;-75
2023/01/21 12:33:19;;;;;;;23.42;17.90;;;3.10;99.90;;;;;;5023856;28;20886;-74
2023/01/21 12:35:49;;;;;;;23.65;17.75;;;3.30;99.90;;;;;;5025457;28;20415;-73
2023/01/21 12:38:26;;;;;;;22.92;17.08;;;3.30;99.90;;;;;;5022020;28;20426;-73
2023/01/21 12:41:00;;;;;;;20.63;15.90;;;3.10;99.90;;;;;;5026230;28;20480;-73
2023/01/21 12:43:35;;;;;;;23.40;18.58;;;3.30;99.90;;;;;;5019099;28;20419;-73
2023/01/21 12:46:09;;;;;;;23.60;18.20;;;3.30;99.90;;;;;;5028781;28;20543;-74
2023/01/21 12:48:42;;;;;;;23.38;16.92;;;3.60;99.90;;;;;;5023380;28;20426;-73
2023/01/21 12:51:46;;;;;;;22.27;17.25;;;3.60;99.90;;;;;;5026652;28;20485;-75
2023/01/21 12:54:33;;;;;;;19.10;15.32;;;3.30;99.90;;;;;;4992637;28;20429;-74